Time;durP1;ratioP1;P1;durP2;ratioP2;P2;SDS_P1;SDS_P2;PMS_P1;PMS_P2;Temp;Humidity;BMP_temperature;BMP_pressure;BME280_temperature;BME280_humidity;BME280_pressure;Samples;Min_cycle;Max_cycle;Signal;HPM_P1;HPM_P2
2024/01/28 00:01:53;;;;;;;22.35;10.20;;;5.70;98.40;;;;;;4248415;27;20119;-61
2024/01/28 00:03:56;;;;;;;25.38;10.73;;;5.70;98.60;;;;;;4248489;27;20043;-60
2024/01/28 00:05:58;;;;;;;22.80;10.48;;;5.70;98.40;;;;;;4248203;27;20444;-60
2024/01/28 00:08:01;;;;;;;20.50;10.02;;;5.70;98.80;;;;;;4248481;27;20039;-60
2024/01/28 00:10:04;;;;;;;24.10;11.00;;;5.70;98.70;;;;;;4248245;27;20416;-60
2024/01/28 00:12:06;;;;;;;21.13;9.82;;;5.60;98.70;;;;;;4248235;27;20436;-60
2024/01/28 00:14:08;;;;;;;27.60;10.48;;;5.50;98.40;;;;;;4230000;28;20414;-61
2024/01/28 00:16:13;;;;;;;20.85;9.90;;;5.50;98.60;;;;;;4249109;27;20059;-61
2024/01/28 00:18:16;;;;;;;24.27;9.55;;;5.50;98.90;;;;;;4249396;27;20039;-61
2024/01/28 00:20:19;;;;;;;24.65;10.32;;;5.60;98.80;;;;;;4248353;27;20043;-59
2024/01/28 00:22:21;;;;;;;22.15;9.75;;;5.70;98.70;;;;;;4248022;27;20533;-60
2024/01/28 00:24:23;;;;;;;21.02;10.10;;;5.70;98.60;;;;;;4248129;27;20043;-60
2024/01/28 00:26:26;;;;;;;25.13;10.55;;;5.70;98.40;;;;;;4247839;27;20062;-60
2024/01/28 00:28:29;;;;;;;21.55;10.32;;;5.70;98.50;;;;;;4247969;27;20057;-59
2024/01/28 00:30:32;;;;;;;25.25;10.48;;;5.60;97.90;;;;;;4248022;27;20073;-59
2024/01/28 00:32:34;;;;;;;17.77;9.20;;;5.70;98.20;;;;;;4247785;27;20049;-61
2024/01/28 00:34:38;;;;;;;16.90;9.15;;;5.60;98.40;;;;;;4248179;27;20043;-60
2024/01/28 00:36:44;;;;;;;21.02;8.23;;;5.60;98.30;;;;;;4248291;28;20379;-60
2024/01/28 00:38:47;;;;;;;17.25;9.32;;;5.50;98.00;;;;;;4247698;28;20129;-60
2024/01/28 00:40:49;;;;;;;21.45;9.73;;;5.40;98.40;;;;;;4248077;28;20070;-60
2024/01/28 00:42:51;;;;;;;17.40;9.23;;;5.40;98.40;;;;;;4247607;28;20065;-60
2024/01/28 00:44:53;;;;;;;21.85;8.88;;;5.40;98.50;;;;;;4247865;28;20046;-60
2024/01/28 00:46:57;;;;;;;17.85;8.68;;;5.40;98.60;;;;;;4247900;28;20044;-65
2024/01/28 00:49:01;;;;;;;21.33;9.52;;;5.40;98.70;;;;;;4247912;28;20466;-61
2024/01/28 00:51:05;;;;;;;20.98;8.77;;;5.30;98.60;;;;;;4247951;28;20063;-61
2024/01/28 00:53:08;;;;;;;17.52;8.45;;;5.30;98.90;;;;;;4248023;28;20054;-62
2024/01/28 00:55:10;;;;;;;21.55;8.95;;;5.30;98.80;;;;;;4247932;28;20400;-61
2024/01/28 00:57:12;;;;;;;18.38;8.40;;;5.20;98.80;;;;;;4229205;28;20047;-61
2024/01/28 00:59:14;;;;;;;20.45;8.93;;;5.20;98.90;;;;;;4249932;27;20051;-60
2024/01/28 01:01:18;;;;;;;20.20;9.35;;;5.30;98.90;;;;;;4251015;27;20092;-61
2024/01/28 01:03:20;;;;;;;20.40;8.93;;;5.30;99.00;;;;;;4251569;27;20108;-60
2024/01/28 01:05:22;;;;;;;18.02;8.70;;;5.40;99.10;;;;;;4251413;27;20046;-61
2024/01/28 01:07:27;;;;;;;16.27;8.23;;;5.30;98.70;;;;;;4251081;27;20489;-61
2024/01/28 01:09:28;;;;;;;18.67;8.70;;;5.40;99.20;;;;;;4251366;27;20075;-62
2024/01/28 01:11:31;;;;;;;20.83;9.48;;;5.40;99.10;;;;;;4251143;27;20070;-61
2024/01/28 01:13:33;;;;;;;20.58;9.80;;;5.40;99.20;;;;;;4251229;27;20043;-60
2024/01/28 01:15:35;;;;;;;23.77;9.50;;;5.50;98.80;;;;;;4251174;27;20058;-61
2024/01/28 01:17:37;;;;;;;22.17;9.32;;;5.40;98.70;;;;;;4251334;27;20122;-61
2024/01/28 01:19:40;;;;;;;20.05;8.25;;;5.40;98.40;;;;;;4251184;27;20124;-61
2024/01/28 01:21:42;;;;;;;19.05;8.65;;;5.50;98.90;;;;;;4251163;27;20043;-62
2024/01/28 01:23:48;;;;;;;20.35;9.00;;;5.40;98.70;;;;;;4232808;28;20048;-60
2024/01/28 01:25:50;;;;;;;16.98;8.50;;;5.30;98.60;;;;;;4250711;27;20486;-61
2024/01/28 01:27:53;;;;;;;16.55;8.23;;;5.30;98.60;;;;;;4250891;27;20043;-61
2024/01/28 01:29:56;;;;;;;20.70;8.93;;;5.40;98.80;;;;;;4250797;27;20046;-61
2024/01/28 01:31:58;;;;;;;21.83;8.70;;;5.30;98.60;;;;;;4250729;27;20071;-61
2024/01/28 01:34:00;;;;;;;17.58;8.98;;;5.30;98.80;;;;;;4250993;27;20051;-61
2024/01/28 01:36:04;;;;;;;21.73;9.82;;;5.20;98.70;;;;;;4250726;27;20048;-61
2024/01/28 01:38:07;;;;;;;17.67;7.85;;;5.10;98.80;;;;;;4250850;27;20489;-61
2024/01/28 01:40:14;;;;;;;24.85;9.48;;;5.10;98.90;;;;;;4231866;28;20181;-61
2024/01/28 01:42:16;;;;;;;19.55;9.40;;;5.10;98.90;;;;;;4250908;27;20514;-65
2024/01/28 01:44:20;;;;;;;16.98;7.82;;;5.20;98.90;;;;;;4232159;28;20475;-61
2024/01/28 01:46:22;;;;;;;23.08;8.68;;;5.30;99.70;;;;;;4250916;27;20544;-61
2024/01/28 01:48:24;;;;;;;21.02;8.32;;;5.40;99.00;;;;;;4232620;28;20043;-61
2024/01/28 01:50:30;;;;;;;17.95;9.02;;;5.40;98.70;;;;;;4250763;27;20071;-61
2024/01/28 01:52:32;;;;;;;19.02;8.75;;;5.40;98.90;;;;;;4250329;27;20067;-60
2024/01/28 01:54:35;;;;;;;20.15;8.73;;;5.50;98.70;;;;;;4232011;28;20439;-61
2024/01/28 01:56:38;;;;;;;21.15;8.65;;;5.50;99.00;;;;;;4250631;27;20043;-60
2024/01/28 01:58:41;;;;;;;18.50;8.30;;;5.50;98.60;;;;;;4250713;27;20047;-60
2024/01/28 02:00:43;;;;;;;19.25;8.60;;;5.40;98.80;;;;;;4250349;27;20412;-61
2024/01/28 02:02:46;;;;;;;15.27;7.05;;;5.30;99.10;;;;;;4251186;27;20484;-59
2024/01/28 02:04:50;;;;;;;18.10;8.18;;;5.40;99.60;;;;;;4234274;28;20116;-61
2024/01/28 02:06:53;;;;;;;19.25;7.97;;;5.50;98.70;;;;;;4252867;27;20050;-60
2024/01/28 02:08:55;;;;;;;18.52;8.73;;;5.50;98.90;;;;;;4250447;27;20047;-60
2024/01/28 02:10:59;;;;;;;17.75;7.50;;;5.60;99.30;;;;;;4250138;27;20061;-60
2024/01/28 02:13:03;;;;;;;16.88;7.80;;;5.60;98.90;;;;;;4250074;27;20043;-60
2024/01/28 02:15:06;;;;;;;23.10;9.88;;;5.80;99.50;;;;;;4250390;27;20491;-60
2024/01/28 02:17:08;;;;;;;19.03;8.27;;;5.90;98.40;;;;;;4250312;27;20085;-60
2024/01/28 02:19:10;;;;;;;24.35;8.70;;;5.80;98.40;;;;;;4250087;27;20151;-61
2024/01/28 02:21:12;;;;;;;17.40;8.35;;;5.70;98.20;;;;;;4249815;27;20043;-60
2024/01/28 02:23:17;;;;;;;18.00;8.25;;;5.60;98.20;;;;;;4249701;27;20043;-60
2024/01/28 02:25:19;;;;;;;20.05;9.13;;;5.60;98.50;;;;;;4231816;28;20405;-61
2024/01/28 02:27:21;;;;;;;20.25;8.85;;;5.60;98.50;;;;;;4249776;27;20054;-60
2024/01/28 02:29:23;;;;;;;21.27;8.55;;;5.50;98.30;;;;;;4249756;27;20067;-60
2024/01/28 02:31:26;;;;;;;22.25;9.07;;;5.40;98.00;;;;;;4249749;27;20047;-60
2024/01/28 02:33:28;;;;;;;16.77;8.00;;;5.40;98.40;;;;;;4249797;27;20071;-60
2024/01/28 02:35:30;;;;;;;16.35;8.10;;;5.40;98.70;;;;;;4249857;27;20046;-60
2024/01/28 02:37:33;;;;;;;19.02;8.20;;;5.50;98.60;;;;;;4249361;27;20051;-61
2024/01/28 02:39:36;;;;;;;17.42;8.45;;;5.40;98.70;;;;;;4249730;27;20083;-60
2024/01/28 02:41:38;;;;;;;18.17;8.85;;;5.50;99.00;;;;;;4231351;28;20402;-60
2024/01/28 02:43:40;;;;;;;17.38;8.65;;;5.50;98.50;;;;;;4249666;27;20378;-60
2024/01/28 02:45:42;;;;;;;16.77;8.65;;;5.60;98.90;;;;;;4249452;27;20043;-59
2024/01/28 02:47:44;;;;;;;15.15;7.78;;;5.50;98.80;;;;;;4249793;27;20058;-63
2024/01/28 02:49:47;;;;;;;21.48;8.93;;;5.60;98.70;;;;;;4231966;28;20055;-62
2024/01/28 02:51:50;;;;;;;18.15;9.48;;;5.60;98.10;;;;;;4249209;27;20573;-59
2024/01/28 02:53:52;;;;;;;19.50;8.50;;;5.50;98.40;;;;;;4249581;27;20133;-60
2024/01/28 02:55:59;;;;;;;15.75;8.50;;;5.40;98.70;;;;;;4249551;27;20125;-60
2024/01/28 02:58:01;;;;;;;20.35;8.70;;;5.30;98.90;;;;;;4249737;27;20049;-60
2024/01/28 03:00:06;;;;;;;15.80;8.60;;;5.30;98.80;;;;;;4249156;27;20050;-60
2024/01/28 03:02:08;;;;;;;17.90;7.85;;;5.30;98.90;;;;;;4249221;27;20043;-60
2024/01/28 03:04:10;;;;;;;20.65;8.77;;;5.40;99.10;;;;;;4249161;27;20472;-61
2024/01/28 03:06:13;;;;;;;19.25;8.93;;;5.50;99.00;;;;;;4230867;27;20044;-60
2024/01/28 03:08:15;;;;;;;21.70;8.25;;;5.50;98.60;;;;;;4249468;27;20092;-60
2024/01/28 03:10:17;;;;;;;14.32;7.03;;;5.40;99.10;;;;;;4249297;27;20114;-60
2024/01/28 03:12:21;;;;;;;17.10;8.32;;;5.40;98.80;;;;;;4249598;27;20068;-60
2024/01/28 03:14:23;;;;;;;23.27;9.07;;;5.50;99.20;;;;;;4249610;27;20039;-61
2024/01/28 03:16:25;;;;;;;13.73;7.78;;;5.50;98.80;;;;;;4250382;27;20043;-61
2024/01/28 03:18:27;;;;;;;17.48;8.48;;;5.50;98.90;;;;;;4250838;27;20054;-61
2024/01/28 03:20:30;;;;;;;21.13;8.75;;;5.40;98.70;;;;;;4231068;28;20043;-64
2024/01/28 03:22:32;;;;;;;16.92;8.93;;;5.30;98.80;;;;;;4249694;27;20043;-60
2024/01/28 03:24:35;;;;;;;19.08;9.32;;;5.30;98.90;;;;;;4249284;27;20054;-61
2024/01/28 03:26:37;;;;;;;15.07;8.23;;;5.30;99.00;;;;;;4249263;27;20284;-61
2024/01/28 03:28:41;;;;;;;16.13;7.50;;;5.30;98.80;;;;;;4248777;27;20042;-60
2024/01/28 03:30:43;;;;;;;14.05;6.22;;;5.30;99.40;;;;;;4249064;27;20523;-61
2024/01/28 03:32:46;;;;;;;24.48;9.23;;;5.40;99.20;;;;;;4248955;27;20054;-61
2024/01/28 03:34:52;;;;;;;16.73;8.32;;;5.40;98.80;;;;;;4248520;27;20051;-61
2024/01/28 03:36:54;;;;;;;18.83;8.15;;;5.40;99.00;;;;;;4248715;27;20138;-60
2024/01/28 03:38:56;;;;;;;18.02;8.68;;;5.40;98.80;;;;;;4248857;27;20418;-60
2024/01/28 03:40:58;;;;;;;18.77;8.25;;;5.40;98.90;;;;;;4248983;27;20055;-61
2024/01/28 03:43:01;;;;;;;17.30;8.57;;;5.30;98.70;;;;;;4249034;27;20463;-60
2024/01/28 03:45:06;;;;;;;18.15;7.70;;;5.40;99.10;;;;;;4249047;27;20070;-60
2024/01/28 03:47:08;;;;;;;20.38;9.48;;;5.40;99.10;;;;;;4249005;27;20051;-61
2024/01/28 03:49:10;;;;;;;14.68;7.80;;;5.30;98.60;;;;;;4248750;27;20130;-61
2024/01/28 03:51:13;;;;;;;13.50;7.45;;;5.30;98.90;;;;;;4248546;27;20086;-61
2024/01/28 03:53:15;;;;;;;19.40;8.73;;;5.40;99.50;;;;;;4251304;27;20043;-66
2024/01/28 03:55:18;;;;;;;15.30;7.90;;;5.40;98.80;;;;;;4249939;27;20039;-61
2024/01/28 03:57:20;;;;;;;16.45;8.55;;;5.50;99.10;;;;;;4249068;27;20043;-61
2024/01/28 03:59:22;;;;;;;22.70;8.57;;;5.40;98.70;;;;;;4248776;27;20046;-58
2024/01/28 04:01:32;;;;;;;17.40;7.90;;;5.40;98.60;;;;;;4248553;27;20055;-61
2024/01/28 04:03:35;;;;;;;19.95;8.77;;;5.40;99.10;;;;;;4248862;27;20059;-61
2024/01/28 04:05:38;;;;;;;22.33;8.75;;;5.30;98.60;;;;;;4249055;27;20108;-61
2024/01/28 04:07:39;;;;;;;17.13;8.52;;;5.30;98.50;;;;;;4250313;27;20472;-61
2024/01/28 04:09:42;;;;;;;14.88;8.60;;;5.20;98.50;;;;;;4249041;27;20092;-59
2024/01/28 04:11:44;;;;;;;18.42;7.72;;;5.20;98.60;;;;;;4250261;27;20050;-60
2024/01/28 04:13:46;;;;;;;23.20;8.45;;;5.10;98.90;;;;;;4250451;27;20069;-65
2024/01/28 04:15:48;;;;;;;20.50;8.80;;;4.90;98.60;;;;;;4250180;27;20063;-59
2024/01/28 04:17:52;;;;;;;21.60;8.63;;;5.00;98.90;;;;;;4248875;27;20039;-60
2024/01/28 04:19:54;;;;;;;12.73;5.97;;;4.90;99.00;;;;;;4248564;27;20043;-59
2024/01/28 04:21:56;;;;;;;17.08;8.35;;;4.80;98.80;;;;;;4249299;27;20444;-59
2024/01/28 04:23:58;;;;;;;20.38;8.55;;;4.80;99.00;;;;;;4248978;27;20046;-59
2024/01/28 04:26:02;;;;;;;14.38;8.07;;;4.80;99.10;;;;;;4248783;27;20447;-60
2024/01/28 04:28:05;;;;;;;17.60;8.43;;;4.80;99.20;;;;;;4248051;27;20049;-60
2024/01/28 04:30:10;;;;;;;18.23;8.00;;;4.70;99.10;;;;;;4248110;27;20504;-60
2024/01/28 04:32:12;;;;;;;16.95;7.63;;;4.70;99.40;;;;;;4248052;27;20050;-60
2024/01/28 04:34:15;;;;;;;19.98;8.55;;;4.70;99.10;;;;;;4247699;27;20058;-60
2024/01/28 04:36:17;;;;;;;16.80;7.82;;;4.60;99.20;;;;;;4248322;27;20049;-60
2024/01/28 04:38:20;;;;;;;18.75;7.70;;;4.70;99.30;;;;;;4229737;28;20043;-60
2024/01/28 04:40:22;;;;;;;15.15;7.38;;;4.60;99.60;;;;;;4247724;28;20039;-60
2024/01/28 04:42:23;;;;;;;20.33;7.72;;;4.60;99.50;;;;;;4247596;28;20137;-60
2024/01/28 04:44:26;;;;;;;16.80;7.78;;;4.70;99.70;;;;;;4247765;28;20054;-60
2024/01/28 04:46:28;;;;;;;13.82;7.03;;;4.60;99.40;;;;;;4248071;28;20047;-61
2024/01/28 04:48:30;;;;;;;15.90;7.20;;;4.70;99.90;;;;;;4232688;28;20501;-61
2024/01/28 04:50:36;;;;;;;13.15;6.40;;;4.80;99.90;;;;;;4250768;28;20110;-63
2024/01/28 04:52:38;;;;;;;15.80;6.18;;;4.90;99.90;;;;;;4250406;28;20637;-61
2024/01/28 04:54:40;;;;;;;10.95;6.07;;;5.00;99.90;;;;;;4248710;28;20089;-61
2024/01/28 04:56:43;;;;;;;16.50;6.40;;;4.90;99.60;;;;;;4248252;28;20485;-61
2024/01/28 04:58:48;;;;;;;15.63;6.45;;;5.00;99.70;;;;;;4247777;28;20131;-60
2024/01/28 05:00:50;;;;;;;11.18;5.68;;;5.00;99.60;;;;;;4247610;28;20051;-61
2024/01/28 05:02:55;;;;;;;15.35;6.72;;;5.00;99.70;;;;;;4247845;28;20443;-61
2024/01/28 05:04:57;;;;;;;14.10;6.15;;;5.00;99.30;;;;;;4247504;28;20409;-59
2024/01/28 05:07:00;;;;;;;14.48;6.30;;;5.00;99.80;;;;;;4247749;28;20130;-60
2024/01/28 05:09:03;;;;;;;13.65;6.70;;;5.00;99.40;;;;;;4247669;28;20047;-61
2024/01/28 05:11:06;;;;;;;14.30;6.30;;;5.00;99.50;;;;;;4247579;28;20520;-60
2024/01/28 05:13:08;;;;;;;13.90;6.07;;;5.00;99.60;;;;;;4247493;28;20074;-61
2024/01/28 05:15:14;;;;;;;12.05;5.95;;;5.10;99.40;;;;;;4247694;28;20088;-60
2024/01/28 05:17:16;;;;;;;13.38;6.38;;;5.20;99.60;;;;;;4247157;28;20120;-60
2024/01/28 05:19:18;;;;;;;14.32;5.65;;;5.10;99.70;;;;;;4247521;28;20087;-61
2024/01/28 05:21:20;;;;;;;11.23;6.13;;;5.10;99.90;;;;;;4247425;28;20051;-60
2024/01/28 05:23:23;;;;;;;11.73;6.50;;;5.20;99.90;;;;;;4247484;28;20517;-60
2024/01/28 05:25:26;;;;;;;12.20;5.55;;;5.20;99.80;;;;;;4247378;28;20043;-60
2024/01/28 05:27:28;;;;;;;11.48;5.50;;;5.20;99.80;;;;;;4247547;28;20069;-59
2024/01/28 05:29:31;;;;;;;14.02;5.95;;;5.20;99.70;;;;;;4247495;28;20092;-59
2024/01/28 05:31:33;;;;;;;13.88;6.13;;;5.30;99.40;;;;;;4247159;28;20413;-59
2024/01/28 05:33:37;;;;;;;14.18;5.85;;;5.10;99.20;;;;;;4247491;28;20043;-59
2024/01/28 05:35:40;;;;;;;16.50;6.85;;;5.10;99.50;;;;;;4247364;28;20039;-59
2024/01/28 05:37:43;;;;;;;11.35;5.35;;;5.00;99.30;;;;;;4247902;28;20047;-61
2024/01/28 05:39:46;;;;;;;14.18;6.07;;;5.00;99.70;;;;;;4247757;28;20483;-62
2024/01/28 05:41:48;;;;;;;15.35;6.57;;;4.90;99.80;;;;;;4232119;28;20101;-67
2024/01/28 05:43:52;;;;;;;14.23;5.93;;;4.90;99.70;;;;;;4248893;27;20477;-60
2024/01/28 05:45:54;;;;;;;11.52;5.47;;;5.00;99.90;;;;;;4250292;27;20047;-61
2024/01/28 05:48:01;;;;;;;19.02;6.72;;;5.10;99.90;;;;;;4232617;28;20047;-60
2024/01/28 05:50:04;;;;;;;10.07;5.30;;;5.20;99.90;;;;;;4250457;27;20541;-60
2024/01/28 05:52:06;;;;;;;15.68;5.88;;;5.30;99.50;;;;;;4250377;27;20116;-60
2024/01/28 05:54:09;;;;;;;10.90;5.40;;;5.10;99.40;;;;;;4250439;27;20067;-59
2024/01/28 05:56:12;;;;;;;14.10;5.65;;;5.30;99.90;;;;;;4249964;27;20047;-60
2024/01/28 05:58:15;;;;;;;18.27;6.50;;;5.30;99.40;;;;;;4250600;27;20130;-60
2024/01/28 06:00:17;;;;;;;11.88;5.68;;;5.20;99.40;;;;;;4250007;27;20078;-60
2024/01/28 06:02:20;;;;;;;14.77;6.53;;;5.10;99.20;;;;;;4251053;27;20051;-61
2024/01/28 06:04:22;;;;;;;13.00;5.78;;;5.00;99.60;;;;;;4250628;27;20067;-60
2024/01/28 06:06:24;;;;;;;10.18;5.65;;;4.90;99.70;;;;;;4249716;27;20087;-61
2024/01/28 06:08:26;;;;;;;17.67;6.13;;;4.90;99.80;;;;;;4250947;27;20071;-60
2024/01/28 06:10:28;;;;;;;9.80;5.40;;;4.90;99.90;;;;;;4251038;27;20074;-61
2024/01/28 06:12:32;;;;;;;14.25;5.50;;;4.90;99.90;;;;;;4233494;28;20047;-61
2024/01/28 06:14:34;;;;;;;12.27;5.68;;;4.80;99.80;;;;;;4251171;27;20039;-64
2024/01/28 06:16:38;;;;;;;14.18;6.07;;;4.90;99.90;;;;;;4250527;27;20526;-61
2024/01/28 06:18:43;;;;;;;9.88;5.55;;;4.90;99.90;;;;;;4250419;27;20047;-61
2024/01/28 06:20:46;;;;;;;9.85;5.30;;;4.90;99.70;;;;;;4249715;27;20482;-61
2024/01/28 06:22:48;;;;;;;12.55;5.85;;;5.10;99.90;;;;;;4249999;27;20047;-60
2024/01/28 06:24:51;;;;;;;15.02;5.38;;;5.00;99.90;;;;;;4249884;27;20391;-60
2024/01/28 06:26:53;;;;;;;12.73;5.50;;;5.10;99.90;;;;;;4249932;27;20070;-61
2024/01/28 06:28:58;;;;;;;13.73;5.68;;;5.10;99.90;;;;;;4249727;27;20039;-60
2024/01/28 06:31:00;;;;;;;14.45;6.28;;;5.20;99.90;;;;;;4249980;27;20431;-61
2024/01/28 06:33:02;;;;;;;9.77;5.13;;;5.20;99.90;;;;;;4249829;27;20047;-60
2024/01/28 06:35:05;;;;;;;12.57;6.22;;;5.20;99.90;;;;;;4249643;27;20043;-60
2024/01/28 06:37:07;;;;;;;12.05;5.68;;;5.10;99.60;;;;;;4249469;27;20055;-61
2024/01/28 06:39:09;;;;;;;8.75;5.28;;;5.10;99.90;;;;;;4249389;27;20067;-60
2024/01/28 06:41:12;;;;;;;11.80;5.60;;;5.10;99.70;;;;;;4249458;27;20043;-60
2024/01/28 06:43:14;;;;;;;9.90;5.35;;;5.10;99.80;;;;;;4249323;27;20043;-60
2024/01/28 06:45:21;;;;;;;13.10;6.38;;;5.00;99.90;;;;;;4249052;27;20051;-61
2024/01/28 06:47:23;;;;;;;10.90;5.65;;;5.10;99.90;;;;;;4249593;27;20047;-60
2024/01/28 06:49:25;;;;;;;16.85;7.00;;;5.20;99.90;;;;;;4249237;27;20232;-60
2024/01/28 06:51:28;;;;;;;13.95;6.32;;;5.20;99.90;;;;;;4249735;27;20055;-60
2024/01/28 06:53:30;;;;;;;14.98;5.45;;;5.10;99.90;;;;;;4249634;27;20126;-60
2024/01/28 06:55:32;;;;;;;10.45;5.70;;;5.10;99.90;;;;;;4249652;27;20047;-66
2024/01/28 06:57:34;;;;;;;11.30;4.95;;;5.10;99.90;;;;;;4249820;27;20047;-60
2024/01/28 06:59:36;;;;;;;8.40;5.20;;;5.20;99.90;;;;;;4249399;27;20043;-61
2024/01/28 07:01:39;;;;;;;10.10;5.65;;;5.20;99.90;;;;;;4249275;27;20446;-60
2024/01/28 07:03:42;;;;;;;14.90;4.55;;;5.10;99.90;;;;;;4249295;27;20039;-61
2024/01/28 07:05:45;;;;;;;11.23;6.13;;;5.20;99.90;;;;;;4249148;27;20122;-60
2024/01/28 07:07:47;;;;;;;12.35;6.10;;;5.10;99.90;;;;;;4249120;27;20043;-61
2024/01/28 07:09:49;;;;;;;11.75;5.70;;;5.10;99.90;;;;;;4248968;27;20046;-60
2024/01/28 07:11:51;;;;;;;11.07;6.30;;;5.20;99.90;;;;;;4248950;27;20451;-61
2024/01/28 07:13:53;;;;;;;10.50;6.45;;;5.30;99.90;;;;;;4248630;27;20053;-61
2024/01/28 07:15:55;;;;;;;15.75;6.70;;;5.30;99.90;;;;;;4249282;27;20043;-61
2024/01/28 07:17:58;;;;;;;11.13;5.60;;;5.30;99.90;;;;;;4248836;27;20069;-60
2024/01/28 07:20:00;;;;;;;9.45;5.00;;;5.30;99.90;;;;;;4248729;27;20092;-60
2024/01/28 07:22:03;;;;;;;14.48;5.40;;;5.30;99.90;;;;;;4230572;28;20051;-61
2024/01/28 07:24:06;;;;;;;13.10;6.18;;;5.30;99.90;;;;;;4248817;27;20074;-61
2024/01/28 07:26:11;;;;;;;;;;;5.20;99.80;;;;;;4249746;27;20141;-64
2024/01/28 07:28:13;;;;;;;12.65;5.43;;;5.20;99.90;;;;;;4248704;27;20293;-61
2024/01/28 07:30:16;;;;;;;12.52;5.82;;;5.30;99.90;;;;;;4249154;27;20047;-61
2024/01/28 07:32:18;;;;;;;12.57;5.72;;;5.20;99.90;;;;;;4249761;27;20107;-61
2024/01/28 07:34:23;;;;;;;11.82;6.05;;;5.30;99.90;;;;;;4248844;27;20055;-61
2024/01/28 07:36:25;;;;;;;;;;;5.30;99.90;;;;;;4249576;27;20047;-60
2024/01/28 07:38:28;;;;;;;9.00;5.72;;;5.30;99.90;;;;;;4248546;27;19923;-60
2024/01/28 07:40:30;;;;;;;11.02;6.15;;;5.20;99.90;;;;;;4248765;27;20043;-59
2024/01/28 07:42:32;;;;;;;12.55;6.60;;;5.20;99.90;;;;;;4248335;27;20120;-60
2024/01/28 07:44:34;;;;;;;16.20;6.78;;;5.20;99.90;;;;;;4248618;27;20047;-59
2024/01/28 07:46:37;;;;;;;15.93;6.47;;;5.10;99.90;;;;;;4248685;27;20050;-60
2024/01/28 07:48:39;;;;;;;12.80;6.35;;;5.00;99.90;;;;;;4248547;27;20039;-60
2024/01/28 07:50:43;;;;;;;13.20;6.65;;;5.10;99.90;;;;;;4230260;28;20051;-60
2024/01/28 07:52:45;;;;;;;13.20;6.47;;;5.00;99.90;;;;;;4248204;27;20053;-60
2024/01/28 07:54:47;;;;;;;10.95;6.13;;;5.10;99.90;;;;;;4248677;27;20063;-59
2024/01/28 07:56:50;;;;;;;10.57;5.70;;;5.10;99.80;;;;;;4248011;27;20122;-60
2024/01/28 07:58:53;;;;;;;16.08;6.40;;;5.10;99.90;;;;;;4248330;27;20452;-60
2024/01/28 08:00:55;;;;;;;13.25;6.43;;;5.20;99.90;;;;;;4248195;27;20138;-61
2024/01/28 08:02:57;;;;;;;12.30;6.28;;;5.30;99.90;;;;;;4248019;27;20375;-61
2024/01/28 08:04:59;;;;;;;12.32;6.32;;;5.30;99.90;;;;;;4248135;27;20043;-60
2024/01/28 08:07:03;;;;;;;15.98;6.32;;;5.20;99.90;;;;;;4248287;27;20043;-60
2024/01/28 08:09:05;;;;;;;10.73;6.13;;;5.20;99.90;;;;;;4248286;27;20078;-60
2024/01/28 08:11:07;;;;;;;15.27;6.40;;;5.20;99.90;;;;;;4248311;27;20111;-60
2024/01/28 08:13:09;;;;;;;15.73;7.40;;;5.20;99.50;;;;;;4248278;27;20043;-61
2024/01/28 08:15:15;;;;;;;15.45;6.97;;;5.30;99.40;;;;;;4248167;27;20074;-61
2024/01/28 08:17:17;;;;;;;16.70;6.80;;;5.30;99.60;;;;;;4247631;27;20059;-60
2024/01/28 08:19:20;;;;;;;14.90;6.82;;;5.30;99.70;;;;;;4248140;27;20051;-61
2024/01/28 08:21:22;;;;;;;14.98;7.10;;;5.40;99.80;;;;;;4247875;27;20063;-59
2024/01/28 08:23:26;;;;;;;12.48;6.15;;;5.40;99.70;;;;;;4248086;27;20363;-60
2024/01/28 08:25:28;;;;;;;13.18;6.82;;;5.40;99.90;;;;;;4247768;27;20386;-59
2024/01/28 08:27:30;;;;;;;17.25;7.78;;;5.40;99.90;;;;;;4230012;28;20048;-60
2024/01/28 08:29:32;;;;;;;13.75;7.20;;;5.40;99.70;;;;;;4248170;27;20047;-60
2024/01/28 08:31:35;;;;;;;20.90;7.53;;;5.50;99.50;;;;;;4248104;27;20050;-60
2024/01/28 08:33:37;;;;;;;13.90;6.90;;;5.40;99.40;;;;;;4247984;28;20046;-61
2024/01/28 08:35:39;;;;;;;14.73;7.70;;;5.60;99.70;;;;;;4229737;28;20040;-60
2024/01/28 08:37:44;;;;;;;14.77;8.07;;;5.60;99.50;;;;;;4248128;27;20054;-61
2024/01/28 08:39:47;;;;;;;13.65;7.32;;;5.60;99.30;;;;;;4247650;28;20049;-60
2024/01/28 08:41:49;;;;;;;15.02;7.53;;;5.50;99.30;;;;;;4249238;28;20044;-60
2024/01/28 08:43:51;;;;;;;14.15;7.10;;;5.60;99.60;;;;;;4248927;28;20047;-59
2024/01/28 08:45:54;;;;;;;17.23;7.57;;;5.60;99.80;;;;;;4247957;28;20047;-63
2024/01/28 08:47:57;;;;;;;20.55;7.60;;;5.80;99.50;;;;;;4250179;28;20424;-63
2024/01/28 08:49:59;;;;;;;14.30;7.47;;;5.90;99.40;;;;;;4250124;28;20055;-60
2024/01/28 08:52:02;;;;;;;13.73;7.70;;;6.00;99.40;;;;;;4250103;28;20039;-62
2024/01/28 08:54:05;;;;;;;15.32;8.30;;;5.90;99.20;;;;;;4248806;28;20051;-62
2024/01/28 08:56:08;;;;;;;16.02;7.85;;;6.00;99.10;;;;;;4248618;28;20549;-62
2024/01/28 08:58:12;;;;;;;16.65;7.97;;;6.00;99.10;;;;;;4247936;28;20051;-61
2024/01/28 09:00:16;;;;;;;12.70;7.97;;;6.00;99.00;;;;;;4247591;28;20087;-60
2024/01/28 09:02:18;;;;;;;16.90;7.32;;;5.90;98.80;;;;;;4247951;28;20473;-61
2024/01/28 09:04:20;;;;;;;18.90;8.82;;;6.00;99.20;;;;;;4247740;28;20059;-61
2024/01/28 09:06:22;;;;;;;16.55;8.27;;;6.00;99.00;;;;;;4248175;28;20043;-60
2024/01/28 09:08:25;;;;;;;15.77;8.27;;;6.10;98.90;;;;;;4247837;28;20047;-61
2024/01/28 09:10:27;;;;;;;16.33;8.32;;;6.00;99.30;;;;;;4248092;28;20543;-60
2024/01/28 09:12:31;;;;;;;16.35;8.13;;;6.10;98.90;;;;;;4247969;28;20050;-60
2024/01/28 09:14:33;;;;;;;18.92;8.00;;;6.10;99.10;;;;;;4229641;28;20410;-61
2024/01/28 09:16:35;;;;;;;21.02;8.38;;;6.10;99.20;;;;;;4247970;28;20127;-60
2024/01/28 09:18:42;;;;;;;14.10;7.50;;;6.00;99.00;;;;;;4249885;27;20039;-60
2024/01/28 09:20:44;;;;;;;18.35;10.00;;;6.00;99.30;;;;;;4252682;27;20043;-61
2024/01/28 09:22:46;;;;;;;14.10;8.18;;;6.20;98.90;;;;;;4251706;27;20074;-66
2024/01/28 09:24:48;;;;;;;17.98;8.15;;;6.20;99.00;;;;;;4251449;27;20057;-61
2024/01/28 09:26:50;;;;;;;17.98;9.18;;;6.10;99.10;;;;;;4251582;27;20042;-61
2024/01/28 09:28:54;;;;;;;16.50;8.60;;;6.20;99.20;;;;;;4251712;27;20043;-61
2024/01/28 09:30:56;;;;;;;15.65;8.43;;;6.20;98.70;;;;;;4251364;27;20047;-61
2024/01/28 09:32:58;;;;;;;16.42;8.13;;;6.30;98.80;;;;;;4250794;27;20051;-61
2024/01/28 09:35:01;;;;;;;12.45;8.18;;;6.30;98.90;;;;;;4251026;27;20521;-61
2024/01/28 09:37:03;;;;;;;11.30;8.13;;;6.30;98.80;;;;;;4252215;27;20055;-61
2024/01/28 09:39:05;;;;;;;18.52;9.02;;;6.40;98.80;;;;;;4251885;27;20135;-61
2024/01/28 09:41:16;;;;;;;14.90;9.05;;;6.30;98.30;;;;;;4251066;27;20574;-61
2024/01/28 09:43:22;;;;;;;13.30;9.00;;;6.30;98.80;;;;;;4250443;27;20058;-60
2024/01/28 09:45:27;;;;;;;16.77;8.32;;;6.40;98.90;;;;;;4250568;27;20071;-60
2024/01/28 09:47:32;;;;;;;17.25;9.38;;;6.40;99.00;;;;;;4250565;27;20129;-61
2024/01/28 09:49:39;;;;;;;15.57;8.85;;;6.30;98.90;;;;;;4250658;27;20122;-61
2024/01/28 09:51:42;;;;;;;17.02;9.07;;;6.50;99.10;;;;;;4250403;27;20043;-60
2024/01/28 09:53:44;;;;;;;17.80;8.88;;;6.60;99.00;;;;;;4250199;27;20050;-61
2024/01/28 09:55:47;;;;;;;22.13;9.50;;;6.60;99.00;;;;;;4250123;27;20043;-60
2024/01/28 09:57:49;;;;;;;19.73;9.85;;;6.70;98.90;;;;;;4231933;28;20039;-61
2024/01/28 09:59:52;;;;;;;18.73;10.00;;;6.80;98.70;;;;;;4250350;27;20180;-60
2024/01/28 10:01:56;;;;;;;16.65;9.00;;;6.90;98.70;;;;;;4250286;27;20066;-60
2024/01/28 10:04:01;;;;;;;13.15;8.02;;;7.00;98.70;;;;;;4250244;27;20074;-61
2024/01/28 10:06:04;;;;;;;16.95;9.80;;;7.10;98.80;;;;;;4250371;27;20401;-61
2024/01/28 10:08:07;;;;;;;14.23;8.07;;;7.20;98.30;;;;;;4249884;27;20047;-61
2024/01/28 10:10:12;;;;;;;15.88;9.38;;;7.20;98.50;;;;;;4250233;27;20557;-61
2024/01/28 10:12:14;;;;;;;16.23;9.48;;;7.30;98.90;;;;;;4250248;27;20045;-60
2024/01/28 10:14:17;;;;;;;17.48;7.95;;;7.30;98.80;;;;;;4250108;27;20051;-61
2024/01/28 10:16:22;;;;;;;16.13;8.23;;;7.40;98.60;;;;;;4250049;27;20073;-61
2024/01/28 10:18:26;;;;;;;14.05;7.82;;;7.30;98.50;;;;;;4249945;27;20465;-60
2024/01/28 10:20:29;;;;;;;16.77;8.55;;;7.40;98.60;;;;;;4250286;27;20047;-61
2024/01/28 10:22:32;;;;;;;15.20;8.13;;;7.50;98.80;;;;;;4249578;27;20096;-61
2024/01/28 10:24:34;;;;;;;12.15;7.10;;;7.60;98.40;;;;;;4249978;27;20071;-60
2024/01/28 10:26:37;;;;;;;13.25;7.50;;;7.70;98.50;;;;;;4249973;27;20067;-60
2024/01/28 10:28:40;;;;;;;10.95;6.20;;;7.80;98.20;;;;;;4249768;27;20043;-61
2024/01/28 10:30:42;;;;;;;11.13;7.18;;;7.90;98.00;;;;;;4249568;27;20078;-60
2024/01/28 10:32:44;;;;;;;12.70;7.10;;;7.90;98.10;;;;;;4249944;27;20047;-60
2024/01/28 10:34:48;;;;;;;10.65;6.72;;;7.90;97.80;;;;;;4249902;27;20120;-61
2024/01/28 10:36:54;;;;;;;12.32;6.45;;;7.80;97.80;;;;;;4249603;27;20142;-61
2024/01/28 10:39:01;;;;;;;8.65;6.53;;;8.00;98.10;;;;;;4251057;27;20058;-61
2024/01/28 10:41:04;;;;;;;13.23;7.00;;;8.20;98.10;;;;;;4251167;27;20092;-61